sensor_id;sensor_type;location;lat;lon;timestamp;P1;durP1;ratioP1;P2;durP2;ratioP2
35562;SDS011;21665;40.108;18.302;2023-09-30T00:01:22;47.10;;;28.45;;
35562;SDS011;21665;40.108;18.302;2023-09-30T00:03:48;51.47;;;30.00;;
35562;SDS011;21665;40.108;18.302;2023-09-30T00:06:14;52.50;;;30.45;;
35562;SDS011;21665;40.108;18.302;2023-09-30T00:08:40;47.78;;;28.30;;
35562;SDS011;21665;40.108;18.302;2023-09-30T00:11:09;46.35;;;29.42;;
35562;SDS011;21665;40.108;18.302;2023-09-30T00:13:35;49.85;;;29.20;;
35562;SDS011;21665;40.108;18.302;2023-09-30T00:16:02;45.13;;;30.02;;
35562;SDS011;21665;40.108;18.302;2023-09-30T00:18:29;49.47;;;30.50;;
35562;SDS011;21665;40.108;18.302;2023-09-30T00:20:55;54.05;;;30.80;;
35562;SDS011;21665;40.108;18.302;2023-09-30T00:23:23;55.05;;;31.48;;
35562;SDS011;21665;40.108;18.302;2023-09-30T00:25:49;47.25;;;29.17;;
35562;SDS011;21665;40.108;18.302;2023-09-30T00:28:16;51.42;;;30.35;;
35562;SDS011;21665;40.108;18.302;2023-09-30T00:30:51;47.22;;;29.17;;
35562;SDS011;21665;40.108;18.302;2023-09-30T00:33:20;50.47;;;30.83;;
35562;SDS011;21665;40.108;18.302;2023-09-30T00:35:47;52.38;;;29.50;;
35562;SDS011;21665;40.108;18.302;2023-09-30T00:38:13;50.13;;;30.27;;
35562;SDS011;21665;40.108;18.302;2023-09-30T00:40:46;51.00;;;31.27;;
35562;SDS011;21665;40.108;18.302;2023-09-30T00:43:19;56.33;;;33.25;;
35562;SDS011;21665;40.108;18.302;2023-09-30T00:49:00;58.70;;;32.33;;
35562;SDS011;21665;40.108;18.302;2023-09-30T00:51:28;55.47;;;32.78;;
35562;SDS011;21665;40.108;18.302;2023-09-30T00:53:56;59.88;;;32.25;;
35562;SDS011;21665;40.108;18.302;2023-09-30T00:56:26;57.53;;;31.95;;
35562;SDS011;21665;40.108;18.302;2023-09-30T00:58:54;57.70;;;32.80;;
35562;SDS011;21665;40.108;18.302;2023-09-30T01:01:21;58.45;;;33.70;;
35562;SDS011;21665;40.108;18.302;2023-09-30T01:03:48;59.55;;;33.22;;
35562;SDS011;21665;40.108;18.302;2023-09-30T01:06:14;57.05;;;33.05;;
35562;SDS011;21665;40.108;18.302;2023-09-30T01:08:41;51.15;;;29.90;;
35562;SDS011;21665;40.108;18.302;2023-09-30T01:11:08;58.38;;;32.20;;
35562;SDS011;21665;40.108;18.302;2023-09-30T01:13:36;55.00;;;30.27;;
35562;SDS011;21665;40.108;18.302;2023-09-30T01:16:07;57.38;;;30.45;;
35562;SDS011;21665;40.108;18.302;2023-09-30T01:18:41;57.15;;;31.50;;
35562;SDS011;21665;40.108;18.302;2023-09-30T01:21:08;55.72;;;29.85;;
35562;SDS011;21665;40.108;18.302;2023-09-30T01:23:36;54.83;;;30.05;;
35562;SDS011;21665;40.108;18.302;2023-09-30T01:26:03;50.50;;;29.60;;
35562;SDS011;21665;40.108;18.302;2023-09-30T01:28:32;57.63;;;31.80;;
35562;SDS011;21665;40.108;18.302;2023-09-30T01:30:59;57.72;;;31.63;;
35562;SDS011;21665;40.108;18.302;2023-09-30T01:33:26;51.83;;;31.15;;
35562;SDS011;21665;40.108;18.302;2023-09-30T01:35:54;54.55;;;30.80;;
35562;SDS011;21665;40.108;18.302;2023-09-30T01:38:20;48.85;;;29.73;;
35562;SDS011;21665;40.108;18.302;2023-09-30T01:40:47;56.35;;;32.25;;
35562;SDS011;21665;40.108;18.302;2023-09-30T01:43:13;53.08;;;31.20;;
35562;SDS011;21665;40.108;18.302;2023-09-30T01:45:40;57.75;;;31.92;;
35562;SDS011;21665;40.108;18.302;2023-09-30T01:48:07;57.22;;;32.50;;
35562;SDS011;21665;40.108;18.302;2023-09-30T01:50:38;57.00;;;32.60;;
35562;SDS011;21665;40.108;18.302;2023-09-30T01:53:05;62.58;;;31.55;;
35562;SDS011;21665;40.108;18.302;2023-09-30T01:55:32;56.97;;;31.15;;
35562;SDS011;21665;40.108;18.302;2023-09-30T01:57:59;50.00;;;31.67;;
35562;SDS011;21665;40.108;18.302;2023-09-30T02:00:26;52.78;;;31.48;;
35562;SDS011;21665;40.108;18.302;2023-09-30T02:02:54;59.60;;;32.80;;
35562;SDS011;21665;40.108;18.302;2023-09-30T02:05:24;55.10;;;31.55;;
35562;SDS011;21665;40.108;18.302;2023-09-30T02:07:50;56.28;;;31.55;;
35562;SDS011;21665;40.108;18.302;2023-09-30T02:10:17;59.10;;;31.52;;
35562;SDS011;21665;40.108;18.302;2023-09-30T02:12:46;55.70;;;31.35;;
35562;SDS011;21665;40.108;18.302;2023-09-30T02:15:13;54.08;;;31.88;;
35562;SDS011;21665;40.108;18.302;2023-09-30T02:17:40;61.55;;;32.45;;
35562;SDS011;21665;40.108;18.302;2023-09-30T02:20:11;47.70;;;29.52;;
35562;SDS011;21665;40.108;18.302;2023-09-30T02:22:38;54.22;;;30.73;;
35562;SDS011;21665;40.108;18.302;2023-09-30T02:25:05;57.67;;;31.15;;
35562;SDS011;21665;40.108;18.302;2023-09-30T02:27:34;56.72;;;31.20;;
35562;SDS011;21665;40.108;18.302;2023-09-30T02:30:00;49.90;;;30.50;;
35562;SDS011;21665;40.108;18.302;2023-09-30T02:32:26;53.35;;;29.95;;
35562;SDS011;21665;40.108;18.302;2023-09-30T02:34:53;52.13;;;30.80;;
35562;SDS011;21665;40.108;18.302;2023-09-30T02:37:19;51.05;;;29.65;;
35562;SDS011;21665;40.108;18.302;2023-09-30T02:39:46;47.83;;;28.98;;
35562;SDS011;21665;40.108;18.302;2023-09-30T02:42:12;55.38;;;30.73;;
35562;SDS011;21665;40.108;18.302;2023-09-30T02:44:38;53.38;;;30.33;;
35562;SDS011;21665;40.108;18.302;2023-09-30T02:47:04;51.40;;;30.70;;
35562;SDS011;21665;40.108;18.302;2023-09-30T02:49:32;52.80;;;29.70;;
35562;SDS011;21665;40.108;18.302;2023-09-30T02:51:58;53.97;;;28.05;;
35562;SDS011;21665;40.108;18.302;2023-09-30T02:54:25;49.92;;;28.92;;
35562;SDS011;21665;40.108;18.302;2023-09-30T02:56:52;51.75;;;28.58;;
35562;SDS011;21665;40.108;18.302;2023-09-30T02:59:20;47.15;;;29.00;;
35562;SDS011;21665;40.108;18.302;2023-09-30T03:01:49;56.42;;;30.45;;
35562;SDS011;21665;40.108;18.302;2023-09-30T03:04:15;52.85;;;30.75;;
35562;SDS011;21665;40.108;18.302;2023-09-30T03:06:45;49.90;;;29.80;;
35562;SDS011;21665;40.108;18.302;2023-09-30T03:09:13;52.72;;;29.35;;
35562;SDS011;21665;40.108;18.302;2023-09-30T03:11:40;49.30;;;27.88;;
35562;SDS011;21665;40.108;18.302;2023-09-30T03:14:09;55.25;;;29.70;;
35562;SDS011;21665;40.108;18.302;2023-09-30T03:16:36;51.88;;;29.45;;
35562;SDS011;21665;40.108;18.302;2023-09-30T03:19:05;45.95;;;28.10;;
35562;SDS011;21665;40.108;18.302;2023-09-30T03:21:33;47.83;;;29.15;;
35562;SDS011;21665;40.108;18.302;2023-09-30T03:24:03;45.13;;;28.15;;
35562;SDS011;21665;40.108;18.302;2023-09-30T03:26:30;46.95;;;27.48;;
35562;SDS011;21665;40.108;18.302;2023-09-30T03:28:57;52.45;;;28.48;;
35562;SDS011;21665;40.108;18.302;2023-09-30T03:31:24;47.20;;;27.95;;
35562;SDS011;21665;40.108;18.302;2023-09-30T03:33:50;42.30;;;28.23;;
35562;SDS011;21665;40.108;18.302;2023-09-30T03:36:20;46.17;;;28.08;;
35562;SDS011;21665;40.108;18.302;2023-09-30T03:38:50;43.40;;;27.40;;
35562;SDS011;21665;40.108;18.302;2023-09-30T03:41:19;44.47;;;27.42;;
35562;SDS011;21665;40.108;18.302;2023-09-30T03:43:46;50.35;;;27.63;;
35562;SDS011;21665;40.108;18.302;2023-09-30T03:46:15;51.60;;;28.75;;
35562;SDS011;21665;40.108;18.302;2023-09-30T03:48:41;51.95;;;28.33;;
35562;SDS011;21665;40.108;18.302;2023-09-30T03:51:13;46.88;;;26.70;;
35562;SDS011;21665;40.108;18.302;2023-09-30T03:53:49;45.80;;;27.25;;
35562;SDS011;21665;40.108;18.302;2023-09-30T03:56:15;46.47;;;27.85;;
35562;SDS011;21665;40.108;18.302;2023-09-30T03:58:43;46.28;;;27.23;;
35562;SDS011;21665;40.108;18.302;2023-09-30T04:01:14;46.05;;;26.92;;
35562;SDS011;21665;40.108;18.302;2023-09-30T04:03:42;46.47;;;26.98;;
35562;SDS011;21665;40.108;18.302;2023-09-30T04:06:09;44.40;;;25.65;;
35562;SDS011;21665;40.108;18.302;2023-09-30T04:08:35;47.55;;;26.58;;
35562;SDS011;21665;40.108;18.302;2023-09-30T04:11:02;46.85;;;27.98;;
35562;SDS011;21665;40.108;18.302;2023-09-30T04:13:29;47.70;;;25.70;;
35562;SDS011;21665;40.108;18.302;2023-09-30T04:15:55;43.70;;;26.77;;
35562;SDS011;21665;40.108;18.302;2023-09-30T04:18:24;45.30;;;27.58;;
35562;SDS011;21665;40.108;18.302;2023-09-30T04:20:51;40.83;;;25.23;;
35562;SDS011;21665;40.108;18.302;2023-09-30T04:23:18;39.47;;;24.80;;
35562;SDS011;21665;40.108;18.302;2023-09-30T04:25:47;45.80;;;25.92;;
35562;SDS011;21665;40.108;18.302;2023-09-30T04:28:15;47.90;;;26.98;;
35562;SDS011;21665;40.108;18.302;2023-09-30T04:30:49;41.38;;;25.48;;
35562;SDS011;21665;40.108;18.302;2023-09-30T04:33:16;45.10;;;25.95;;
35562;SDS011;21665;40.108;18.302;2023-09-30T04:35:45;50.17;;;27.95;;
35562;SDS011;21665;40.108;18.302;2023-09-30T04:38:14;45.33;;;25.02;;
35562;SDS011;21665;40.108;18.302;2023-09-30T04:40:40;40.65;;;24.98;;
35562;SDS011;21665;40.108;18.302;2023-09-30T04:43:09;45.83;;;26.50;;
35562;SDS011;21665;40.108;18.302;2023-09-30T04:45:36;48.88;;;26.27;;
35562;SDS011;21665;40.108;18.302;2023-09-30T04:48:02;42.90;;;25.42;;
35562;SDS011;21665;40.108;18.302;2023-09-30T04:50:29;45.17;;;25.70;;
35562;SDS011;21665;40.108;18.302;2023-09-30T04:52:56;43.97;;;26.48;;
35562;SDS011;21665;40.108;18.302;2023-09-30T04:55:23;40.45;;;25.42;;
35562;SDS011;21665;40.108;18.302;2023-09-30T04:57:49;43.80;;;25.45;;
35562;SDS011;21665;40.108;18.302;2023-09-30T05:00:17;45.95;;;26.35;;
35562;SDS011;21665;40.108;18.302;2023-09-30T05:02:44;38.28;;;25.35;;
35562;SDS011;21665;40.108;18.302;2023-09-30T05:05:11;43.60;;;25.58;;
35562;SDS011;21665;40.108;18.302;2023-09-30T05:07:37;39.88;;;25.63;;
35562;SDS011;21665;40.108;18.302;2023-09-30T05:10:04;35.70;;;24.95;;
35562;SDS011;21665;40.108;18.302;2023-09-30T05:12:33;44.15;;;25.90;;
35562;SDS011;21665;40.108;18.302;2023-09-30T05:14:59;59.10;;;25.73;;
35562;SDS011;21665;40.108;18.302;2023-09-30T05:17:25;43.10;;;24.38;;
35562;SDS011;21665;40.108;18.302;2023-09-30T05:19:52;45.15;;;25.38;;
35562;SDS011;21665;40.108;18.302;2023-09-30T05:22:19;40.40;;;22.20;;
35562;SDS011;21665;40.108;18.302;2023-09-30T05:24:52;39.67;;;24.13;;
35562;SDS011;21665;40.108;18.302;2023-09-30T05:27:19;37.30;;;23.10;;
35562;SDS011;21665;40.108;18.302;2023-09-30T05:29:45;41.22;;;25.05;;
35562;SDS011;21665;40.108;18.302;2023-09-30T05:32:12;35.92;;;23.63;;
35562;SDS011;21665;40.108;18.302;2023-09-30T05:34:39;36.40;;;22.52;;
35562;SDS011;21665;40.108;18.302;2023-09-30T05:37:06;36.58;;;21.20;;
35562;SDS011;21665;40.108;18.302;2023-09-30T05:39:32;33.63;;;21.48;;
35562;SDS011;21665;40.108;18.302;2023-09-30T05:41:58;35.00;;;21.95;;
35562;SDS011;21665;40.108;18.302;2023-09-30T05:44:25;36.10;;;22.02;;
35562;SDS011;21665;40.108;18.302;2023-09-30T05:46:54;35.50;;;21.38;;
35562;SDS011;21665;40.108;18.302;2023-09-30T05:49:20;37.70;;;20.92;;
35562;SDS011;21665;40.108;18.302;2023-09-30T05:51:47;29.48;;;20.95;;
35562;SDS011;21665;40.108;18.302;2023-09-30T05:54:13;31.92;;;21.55;;
35562;SDS011;21665;40.108;18.302;2023-09-30T05:56:39;30.35;;;20.98;;
35562;SDS011;21665;40.108;18.302;2023-09-30T05:59:08;32.10;;;23.30;;
35562;SDS011;21665;40.108;18.302;2023-09-30T06:01:35;27.80;;;22.63;;
35562;SDS011;21665;40.108;18.302;2023-09-30T06:04:02;30.58;;;23.48;;
35562;SDS011;21665;40.108;18.302;2023-09-30T06:06:29;29.02;;;23.33;;
35562;SDS011;21665;40.108;18.302;2023-09-30T06:08:55;35.00;;;23.52;;
35562;SDS011;21665;40.108;18.302;2023-09-30T06:11:25;33.67;;;25.23;;
35562;SDS011;21665;40.108;18.302;2023-09-30T06:13:55;31.88;;;25.88;;
35562;SDS011;21665;40.108;18.302;2023-09-30T06:16:26;30.27;;;24.70;;
35562;SDS011;21665;40.108;18.302;2023-09-30T06:18:57;30.05;;;25.13;;
35562;SDS011;21665;40.108;18.302;2023-09-30T06:21:26;29.60;;;26.05;;
35562;SDS011;21665;40.108;18.302;2023-09-30T06:23:55;27.98;;;24.98;;
35562;SDS011;21665;40.108;18.302;2023-09-30T06:26:21;30.83;;;24.92;;
35562;SDS011;21665;40.108;18.302;2023-09-30T06:28:50;34.53;;;26.50;;
35562;SDS011;21665;40.108;18.302;2023-09-30T06:31:19;27.48;;;24.60;;
35562;SDS011;21665;40.108;18.302;2023-09-30T06:33:46;29.98;;;25.30;;
35562;SDS011;21665;40.108;18.302;2023-09-30T06:36:13;32.13;;;25.02;;
35562;SDS011;21665;40.108;18.302;2023-09-30T06:38:40;34.42;;;25.55;;
35562;SDS011;21665;40.108;18.302;2023-09-30T06:41:16;29.42;;;24.50;;
35562;SDS011;21665;40.108;18.302;2023-09-30T06:43:43;26.67;;;23.80;;
35562;SDS011;21665;40.108;18.302;2023-09-30T06:46:13;29.60;;;23.92;;
35562;SDS011;21665;40.108;18.302;2023-09-30T06:49:10;27.05;;;24.33;;
35562;SDS011;21665;40.108;18.302;2023-09-30T06:51:37;26.77;;;23.85;;
35562;SDS011;21665;40.108;18.302;2023-09-30T06:54:07;28.45;;;24.77;;
35562;SDS011;21665;40.108;18.302;2023-09-30T06:56:35;28.13;;;25.30;;
35562;SDS011;21665;40.108;18.302;2023-09-30T06:59:02;27.95;;;24.23;;
35562;SDS011;21665;40.108;18.302;2023-09-30T07:01:29;26.23;;;23.48;;
35562;SDS011;21665;40.108;18.302;2023-09-30T07:03:57;26.73;;;23.88;;
35562;SDS011;21665;40.108;18.302;2023-09-30T07:06:25;25.95;;;23.30;;
35562;SDS011;21665;40.108;18.302;2023-09-30T07:08:53;26.45;;;23.65;;
35562;SDS011;21665;40.108;18.302;2023-09-30T07:11:29;26.67;;;24.13;;
35562;SDS011;21665;40.108;18.302;2023-09-30T07:13:59;28.23;;;24.98;;
35562;SDS011;21665;40.108;18.302;2023-09-30T07:16:27;27.27;;;24.27;;
35562;SDS011;21665;40.108;18.302;2023-09-30T07:18:56;27.55;;;24.70;;
35562;SDS011;21665;40.108;18.302;2023-09-30T07:21:25;28.75;;;24.90;;
35562;SDS011;21665;40.108;18.302;2023-09-30T07:23:51;26.42;;;23.83;;
35562;SDS011;21665;40.108;18.302;2023-09-30T07:26:22;26.05;;;23.40;;
35562;SDS011;21665;40.108;18.302;2023-09-30T07:28:52;25.73;;;22.48;;
35562;SDS011;21665;40.108;18.302;2023-09-30T07:31:20;26.27;;;22.20;;
35562;SDS011;21665;40.108;18.302;2023-09-30T07:33:49;25.63;;;23.10;;
35562;SDS011;21665;40.108;18.302;2023-09-30T07:36:15;25.02;;;22.40;;
35562;SDS011;21665;40.108;18.302;2023-09-30T07:38:44;24.48;;;21.80;;
35562;SDS011;21665;40.108;18.302;2023-09-30T07:41:13;25.27;;;21.55;;
35562;SDS011;21665;40.108;18.302;2023-09-30T07:43:39;24.73;;;22.20;;
35562;SDS011;21665;40.108;18.302;2023-09-30T07:46:06;24.15;;;21.85;;
35562;SDS011;21665;40.108;18.302;2023-09-30T07:48:35;23.92;;;21.65;;
35562;SDS011;21665;40.108;18.302;2023-09-30T07:51:07;24.23;;;21.75;;
35562;SDS011;21665;40.108;18.302;2023-09-30T07:53:39;25.75;;;23.27;;
35562;SDS011;21665;40.108;18.302;2023-09-30T07:56:06;25.35;;;22.92;;
35562;SDS011;21665;40.108;18.302;2023-09-30T07:58:35;24.65;;;22.25;;
35562;SDS011;21665;40.108;18.302;2023-09-30T08:01:03;24.30;;;22.50;;
35562;SDS011;21665;40.108;18.302;2023-09-30T08:03:30;25.50;;;23.15;;
35562;SDS011;21665;40.108;18.302;2023-09-30T08:05:57;26.33;;;23.73;;
35562;SDS011;21665;40.108;18.302;2023-09-30T08:08:26;25.30;;;23.10;;
35562;SDS011;21665;40.108;18.302;2023-09-30T08:10:58;24.38;;;22.00;;
35562;SDS011;21665;40.108;18.302;2023-09-30T08:13:25;25.75;;;23.55;;
35562;SDS011;21665;40.108;18.302;2023-09-30T08:15:55;25.60;;;23.13;;
35562;SDS011;21665;40.108;18.302;2023-09-30T08:18:23;24.75;;;22.60;;
35562;SDS011;21665;40.108;18.302;2023-09-30T08:20:51;25.63;;;23.23;;
35562;SDS011;21665;40.108;18.302;2023-09-30T08:23:17;24.98;;;22.42;;
35562;SDS011;21665;40.108;18.302;2023-09-30T08:25:44;24.85;;;22.65;;
35562;SDS011;21665;40.108;18.302;2023-09-30T08:28:12;25.58;;;23.02;;
35562;SDS011;21665;40.108;18.302;2023-09-30T08:30:39;24.42;;;22.33;;
35562;SDS011;21665;40.108;18.302;2023-09-30T08:33:05;24.83;;;22.48;;
35562;SDS011;21665;40.108;18.302;2023-09-30T08:35:37;24.67;;;22.65;;
35562;SDS011;21665;40.108;18.302;2023-09-30T08:38:06;27.83;;;23.17;;
35562;SDS011;21665;40.108;18.302;2023-09-30T08:40:35;25.80;;;23.15;;
35562;SDS011;21665;40.108;18.302;2023-09-30T08:43:04;24.80;;;22.83;;
35562;SDS011;21665;40.108;18.302;2023-09-30T08:45:31;26.40;;;24.10;;
35562;SDS011;21665;40.108;18.302;2023-09-30T08:48:05;25.70;;;23.75;;
35562;SDS011;21665;40.108;18.302;2023-09-30T08:50:32;26.35;;;24.05;;
35562;SDS011;21665;40.108;18.302;2023-09-30T08:53:00;26.75;;;24.60;;
35562;SDS011;21665;40.108;18.302;2023-09-30T08:55:29;26.63;;;24.55;;
35562;SDS011;21665;40.108;18.302;2023-09-30T08:58:00;26.70;;;24.70;;
35562;SDS011;21665;40.108;18.302;2023-09-30T09:00:28;27.88;;;25.58;;
35562;SDS011;21665;40.108;18.302;2023-09-30T09:02:55;27.95;;;25.95;;
35562;SDS011;21665;40.108;18.302;2023-09-30T09:05:21;29.60;;;27.38;;
35562;SDS011;21665;40.108;18.302;2023-09-30T09:07:47;29.67;;;27.45;;
35562;SDS011;21665;40.108;18.302;2023-09-30T09:10:16;28.80;;;26.70;;
35562;SDS011;21665;40.108;18.302;2023-09-30T09:12:44;28.48;;;26.23;;
35562;SDS011;21665;40.108;18.302;2023-09-30T09:15:24;30.23;;;27.33;;
35562;SDS011;21665;40.108;18.302;2023-09-30T09:17:54;29.42;;;27.05;;
35562;SDS011;21665;40.108;18.302;2023-09-30T09:20:23;28.80;;;26.05;;
35562;SDS011;21665;40.108;18.302;2023-09-30T09:22:54;27.98;;;25.42;;
35562;SDS011;21665;40.108;18.302;2023-09-30T09:25:26;27.17;;;25.27;;
35562;SDS011;21665;40.108;18.302;2023-09-30T09:27:53;27.77;;;25.83;;
35562;SDS011;21665;40.108;18.302;2023-09-30T09:30:21;28.13;;;25.65;;
35562;SDS011;21665;40.108;18.302;2023-09-30T09:35:27;27.55;;;25.58;;
35562;SDS011;21665;40.108;18.302;2023-09-30T09:37:59;28.42;;;26.02;;
35562;SDS011;21665;40.108;18.302;2023-09-30T09:40:28;27.45;;;25.23;;
35562;SDS011;21665;40.108;18.302;2023-09-30T09:43:01;30.27;;;27.10;;
35562;SDS011;21665;40.108;18.302;2023-09-30T09:45:36;28.48;;;26.10;;
35562;SDS011;21665;40.108;18.302;2023-09-30T09:48:07;29.15;;;26.48;;
35562;SDS011;21665;40.108;18.302;2023-09-30T09:50:35;28.23;;;25.85;;
35562;SDS011;21665;40.108;18.302;2023-09-30T09:53:05;29.25;;;26.88;;
35562;SDS011;21665;40.108;18.302;2023-09-30T09:55:31;28.20;;;26.13;;
35562;SDS011;21665;40.108;18.302;2023-09-30T09:57:59;28.52;;;26.35;;
35562;SDS011;21665;40.108;18.302;2023-09-30T10:00:28;28.08;;;25.88;;
35562;SDS011;21665;40.108;18.302;2023-09-30T10:03:03;28.10;;;25.98;;
35562;SDS011;21665;40.108;18.302;2023-09-30T10:05:34;28.42;;;26.08;;
35562;SDS011;21665;40.108;18.302;2023-09-30T10:08:05;29.55;;;26.73;;
35562;SDS011;21665;40.108;18.302;2023-09-30T10:10:37;29.27;;;26.65;;
35562;SDS011;21665;40.108;18.302;2023-09-30T10:13:05;29.23;;;26.90;;
35562;SDS011;21665;40.108;18.302;2023-09-30T10:15:35;28.70;;;26.50;;
35562;SDS011;21665;40.108;18.302;2023-09-30T10:18:07;28.50;;;26.30;;
35562;SDS011;21665;40.108;18.302;2023-09-30T10:20:40;27.83;;;25.83;;
35562;SDS011;21665;40.108;18.302;2023-09-30T10:25:47;28.08;;;25.58;;
35562;SDS011;21665;40.108;18.302;2023-09-30T10:28:36;27.42;;;25.17;;
35562;SDS011;21665;40.108;18.302;2023-09-30T10:36:33;29.10;;;26.55;;
35562;SDS011;21665;40.108;18.302;2023-09-30T10:39:05;29.02;;;26.50;;
35562;SDS011;21665;40.108;18.302;2023-09-30T10:46:53;29.40;;;25.77;;
35562;SDS011;21665;40.108;18.302;2023-09-30T10:51:52;28.92;;;26.00;;
35562;SDS011;21665;40.108;18.302;2023-09-30T10:54:24;28.10;;;25.77;;
35562;SDS011;21665;40.108;18.302;2023-09-30T10:56:53;28.77;;;26.10;;
35562;SDS011;21665;40.108;18.302;2023-09-30T10:59:24;29.17;;;26.30;;
35562;SDS011;21665;40.108;18.302;2023-09-30T11:01:55;29.90;;;27.08;;
35562;SDS011;21665;40.108;18.302;2023-09-30T11:04:22;29.85;;;26.83;;
35562;SDS011;21665;40.108;18.302;2023-09-30T11:06:50;29.13;;;26.40;;
35562;SDS011;21665;40.108;18.302;2023-09-30T11:09:20;29.25;;;26.80;;
35562;SDS011;21665;40.108;18.302;2023-09-30T11:11:49;29.25;;;26.67;;
35562;SDS011;21665;40.108;18.302;2023-09-30T11:14:18;29.92;;;27.42;;
35562;SDS011;21665;40.108;18.302;2023-09-30T11:16:58;30.25;;;27.42;;
35562;SDS011;21665;40.108;18.302;2023-09-30T11:19:36;29.08;;;26.52;;
35562;SDS011;21665;40.108;18.302;2023-09-30T11:22:13;28.55;;;26.00;;
35562;SDS011;21665;40.108;18.302;2023-09-30T11:24:40;29.30;;;26.50;;
35562;SDS011;21665;40.108;18.302;2023-09-30T11:27:07;29.48;;;26.77;;
35562;SDS011;21665;40.108;18.302;2023-09-30T11:29:34;28.58;;;26.17;;
35562;SDS011;21665;40.108;18.302;2023-09-30T11:32:01;28.33;;;25.60;;
35562;SDS011;21665;40.108;18.302;2023-09-30T11:34:33;29.50;;;27.08;;
35562;SDS011;21665;40.108;18.302;2023-09-30T11:37:05;29.98;;;27.38;;
35562;SDS011;21665;40.108;18.302;2023-09-30T11:39:33;30.00;;;27.60;;
35562;SDS011;21665;40.108;18.302;2023-09-30T11:42:02;30.08;;;27.15;;
35562;SDS011;21665;40.108;18.302;2023-09-30T11:44:46;28.83;;;26.33;;
35562;SDS011;21665;40.108;18.302;2023-09-30T11:47:16;29.60;;;27.38;;
35562;SDS011;21665;40.108;18.302;2023-09-30T11:49:54;29.90;;;27.25;;
35562;SDS011;21665;40.108;18.302;2023-09-30T11:52:26;29.92;;;27.20;;
35562;SDS011;21665;40.108;18.302;2023-09-30T11:54:55;28.25;;;26.17;;
35562;SDS011;21665;40.108;18.302;2023-09-30T11:57:27;29.00;;;26.55;;
35562;SDS011;21665;40.108;18.302;2023-09-30T11:59:54;29.85;;;26.88;;
35562;SDS011;21665;40.108;18.302;2023-09-30T12:02:23;28.90;;;26.60;;
35562;SDS011;21665;40.108;18.302;2023-09-30T12:05:16;28.85;;;26.40;;
35562;SDS011;21665;40.108;18.302;2023-09-30T12:07:49;29.00;;;26.80;;
35562;SDS011;21665;40.108;18.302;2023-09-30T12:10:17;29.98;;;27.35;;
35562;SDS011;21665;40.108;18.302;2023-09-30T12:12:45;28.92;;;26.70;;
35562;SDS011;21665;40.108;18.302;2023-09-30T12:15:16;30.45;;;27.88;;
35562;SDS011;21665;40.108;18.302;2023-09-30T12:17:47;29.25;;;27.08;;
35562;SDS011;21665;40.108;18.302;2023-09-30T12:20:13;29.48;;;27.00;;
35562;SDS011;21665;40.108;18.302;2023-09-30T12:22:47;28.73;;;26.33;;
35562;SDS011;21665;40.108;18.302;2023-09-30T12:25:22;30.15;;;27.35;;
35562;SDS011;21665;40.108;18.302;2023-09-30T12:27:52;30.15;;;27.25;;
35562;SDS011;21665;40.108;18.302;2023-09-30T12:30:21;29.25;;;27.13;;
35562;SDS011;21665;40.108;18.302;2023-09-30T12:32:52;29.13;;;26.83;;
35562;SDS011;21665;40.108;18.302;2023-09-30T12:35:53;29.38;;;27.20;;
35562;SDS011;21665;40.108;18.302;2023-09-30T12:38:21;29.52;;;26.73;;
35562;SDS011;21665;40.108;18.302;2023-09-30T12:40:49;29.25;;;26.55;;
35562;SDS011;21665;40.108;18.302;2023-09-30T12:43:17;29.63;;;27.05;;
35562;SDS011;21665;40.108;18.302;2023-09-30T12:45:45;30.85;;;27.85;;
35562;SDS011;21665;40.108;18.302;2023-09-30T12:48:14;29.48;;;26.95;;
35562;SDS011;21665;40.108;18.302;2023-09-30T12:50:46;30.13;;;27.40;;
35562;SDS011;21665;40.108;18.302;2023-09-30T12:53:13;29.20;;;27.00;;
35562;SDS011;21665;40.108;18.302;2023-09-30T15:26:29;29.27;;;26.88;;
35562;SDS011;21665;40.108;18.302;2023-09-30T15:29:01;29.08;;;26.42;;
35562;SDS011;21665;40.108;18.302;2023-09-30T15:31:28;29.40;;;26.95;;
35562;SDS011;21665;40.108;18.302;2023-09-30T15:33:56;29.73;;;27.45;;
35562;SDS011;21665;40.108;18.302;2023-09-30T15:36:22;29.80;;;27.33;;
35562;SDS011;21665;40.108;18.302;2023-09-30T15:38:49;30.15;;;27.60;;
35562;SDS011;21665;40.108;18.302;2023-09-30T15:41:19;29.25;;;26.60;;
35562;SDS011;21665;40.108;18.302;2023-09-30T15:43:50;28.15;;;25.83;;
35562;SDS011;21665;40.108;18.302;2023-09-30T15:46:16;29.67;;;27.10;;
35562;SDS011;21665;40.108;18.302;2023-09-30T15:48:43;30.02;;;27.15;;
35562;SDS011;21665;40.108;18.302;2023-09-30T15:51:12;29.30;;;26.85;;
35562;SDS011;21665;40.108;18.302;2023-09-30T15:53:38;28.77;;;26.33;;
35562;SDS011;21665;40.108;18.302;2023-09-30T15:56:05;30.20;;;27.50;;
35562;SDS011;21665;40.108;18.302;2023-09-30T15:58:34;30.02;;;27.35;;
35562;SDS011;21665;40.108;18.302;2023-09-30T16:01:00;29.85;;;27.23;;
35562;SDS011;21665;40.108;18.302;2023-09-30T16:03:28;28.90;;;26.45;;
35562;SDS011;21665;40.108;18.302;2023-09-30T16:05:55;31.50;;;28.17;;
35562;SDS011;21665;40.108;18.302;2023-09-30T16:08:24;30.25;;;27.33;;
35562;SDS011;21665;40.108;18.302;2023-09-30T16:10:52;29.73;;;27.20;;
35562;SDS011;21665;40.108;18.302;2023-09-30T16:13:20;29.65;;;26.52;;
35562;SDS011;21665;40.108;18.302;2023-09-30T16:15:47;28.60;;;25.75;;
35562;SDS011;21665;40.108;18.302;2023-09-30T16:18:16;27.92;;;25.45;;
35562;SDS011;21665;40.108;18.302;2023-09-30T16:20:45;26.83;;;24.17;;
35562;SDS011;21665;40.108;18.302;2023-09-30T16:23:34;27.02;;;24.05;;
35562;SDS011;21665;40.108;18.302;2023-09-30T16:30:14;23.77;;;21.33;;
35562;SDS011;21665;40.108;18.302;2023-09-30T16:33:04;22.48;;;20.42;;
35562;SDS011;21665;40.108;18.302;2023-09-30T16:35:31;24.05;;;21.42;;
35562;SDS011;21665;40.108;18.302;2023-09-30T16:37:57;24.02;;;20.90;;
35562;SDS011;21665;40.108;18.302;2023-09-30T16:40:27;24.17;;;21.33;;
35562;SDS011;21665;40.108;18.302;2023-09-30T16:42:53;23.48;;;21.10;;
35562;SDS011;21665;40.108;18.302;2023-09-30T16:45:20;23.73;;;21.50;;
35562;SDS011;21665;40.108;18.302;2023-09-30T16:47:46;24.13;;;21.58;;
35562;SDS011;21665;40.108;18.302;2023-09-30T16:50:13;28.38;;;21.83;;
35562;SDS011;21665;40.108;18.302;2023-09-30T16:52:42;24.10;;;20.83;;
35562;SDS011;21665;40.108;18.302;2023-09-30T16:55:10;24.35;;;20.80;;
35562;SDS011;21665;40.108;18.302;2023-09-30T16:57:40;23.58;;;21.15;;
35562;SDS011;21665;40.108;18.302;2023-09-30T17:00:07;30.90;;;22.80;;
35562;SDS011;21665;40.108;18.302;2023-09-30T17:02:37;24.90;;;21.17;;
35562;SDS011;21665;40.108;18.302;2023-09-30T17:05:05;23.80;;;21.33;;
35562;SDS011;21665;40.108;18.302;2023-09-30T17:07:33;23.83;;;21.13;;
35562;SDS011;21665;40.108;18.302;2023-09-30T17:10:02;26.90;;;21.42;;
35562;SDS011;21665;40.108;18.302;2023-09-30T17:12:30;23.13;;;20.98;;
35562;SDS011;21665;40.108;18.302;2023-09-30T17:14:56;22.50;;;20.45;;